Terminal Aerodrome Forecast
Issued by NWS

Home | Current Version | Previous Version | Text Only | Print | Product List | Glossary On
Versions: 1 2 3 4 5 6 7 8 9 10 11 12 13 14 15 16
525
FTUS45 KTFX 190520
TAFHLN
TAF
KHLN 190520Z 1906/2006 27006KT 4SM FU BKN090
     FM191800 30012G18KT P6SM FEW070 FEW200
     FM200400 VRB05KT P6SM FEW060 SCT200=

USA.gov is the U.S. government's official web portal to all federal, state and local government web resources and services.